Ballinger, TX (76821)

10:40 AM CST on January 22, 2017 (GMT -0600)
West of Lake Winters | | Change Station
Active Advisory: Wind Advisory

Elev 1834 ft 31.96 °N, 99.88 °W | Updated 14 seconds ago

Clear
Clear
55.6 °F
Feels Like 55.6 °F
N
19.0
Wind Variable Wind from NNW
Gusts 22.4 mph

Today
High -- | Low -- °F
--% Chance of Precip.
Yesterday
High -- | Low -- °F
Precip. -- in
Pressure 29.85 in
Visibility 10.0 miles
Clouds Scattered Clouds 3400 ft
Dew Point 44 °F
Humidity 66%
Rainfall 0.00 in
Snow Depth Not available.
7:37 AM 6:05 PM
Waning Crescent, 25% visible
METAR KCOM 221635Z AUTO 32024G34KT 10SM SCT034 13/03 A2985 RMK AO2
Pressure 29.85 in
Visibility 10.0 miles
Clouds Scattered Clouds 3400 ft
Dew Point 44 °F
Humidity 66%
Rainfall 0.00 in
Snow Depth Not available.
7:37 AM 6:05 PM
Waning Crescent, 25% visible
METAR KCOM 221635Z AUTO 32024G34KT 10SM SCT034 13/03 A2985 RMK AO2

Get Your Daily Forecast Email!

Thanks for signing up!

Be on the lookout for a verification email in your inbox.

You'll start receiving the daily forecast at 8 AM.

×

10-Day Weather Forecast

Almanac

Astronomy

Jan. 22, 2017 Rise Set
Actual Time
Civil Twilight
Nautical Twilight
Astronomical Twilight
Moon
Length of Visible Light
Length of Day
Tomorrow will be .
, % of the Moon is Illuminated

Today's Extremes

State Highs State Lows

Community

WunderPhotos

Upload Photos

1,962,540 photos uploaded!

WunderBlog® & News

Nearby

Air Quality

  Air Quality AQ Index Pollutant
Not available.

Snow Depth

Station Depth Elevation

Earthquake Activity

City Distance Mag. Time & Date
Minimum magnitude displayed is 2.5.

Coastal Water Temperatures

Place Temperature

Stations

Nearby Weather Stations

Station Location Temp. Windchill Dew Point Humidity Wind Precip. Elev Updated Type
                   

Watches & Warnings

Wind Advisory
Issued: 10:05 AM CST Jan. 22, 2017 – National Weather Service

... Wind Advisory remains in effect until 3 PM CST this
afternoon...

* timing... continues through this afternoon.

* Winds... 25 to 35 mph with gusts near 40 mph.

* Impacts... hazardous driving and boating conditions.

Precautionary/preparedness actions...

A Wind Advisory means that winds of 35 mph are expected. Winds
this strong can make driving difficult... especially for high
profile vehicles. Also... winds this strong will create hazardous
boating conditions on area lakes. Use extra caution.